Time;durP1;ratioP1;P1;durP2;ratioP2;P2;SDS_P1;SDS_P2;PMS_P1;PMS_P2;Temp;Humidity;BMP_temperature;BMP_pressure;BME280_temperature;BME280_humidity;BME280_pressure;Samples;Min_cycle;Max_cycle;Signal;HPM_P1;HPM_P2
2022/06/09 00:00:08;;;;;;;38.90;17.88;;;;;;;;;;5071946;28;20052;-75
2022/06/09 00:02:35;;;;;;;32.38;18.35;;;;;;;;;;5073855;28;20043;-75
2022/06/09 00:05:02;;;;;;;33.95;17.80;;;;;;;;;;5080862;28;20545;-75
2022/06/09 00:07:28;;;;;;;32.65;19.15;;;;;;;;;;5078605;28;20041;-75
2022/06/09 00:09:57;;;;;;;35.28;17.38;;;;;;;;;;5083756;28;20050;-75
2022/06/09 00:12:24;;;;;;;35.50;18.08;;;;;;;;;;5081489;28;20067;-75
2022/06/09 00:14:50;;;;;;;34.85;18.13;;;;;;;;;;5072408;28;20048;-75
2022/06/09 00:17:16;;;;;;;33.20;15.93;;;;;;;;;;5071080;28;20045;-75
2022/06/09 00:19:42;;;;;;;27.48;15.27;;;;;;;;;;5073488;28;20052;-75
2022/06/09 00:22:08;;;;;;;30.17;17.27;;;;;;;;;;5079736;28;20056;-75
2022/06/09 00:24:34;;;;;;;32.65;15.70;;;;;;;;;;5087599;28;20043;-75
2022/06/09 00:27:00;;;;;;;27.90;15.45;;;;;;;;;;5071082;28;20041;-73
2022/06/09 00:29:29;;;;;;;31.17;15.68;;;;;;;;;;5091428;28;20055;-74
2022/06/09 00:31:55;;;;;;;35.10;16.52;;;;;;;;;;5082510;28;20079;-74
2022/06/09 00:34:21;;;;;;;28.42;14.85;;;;;;;;;;5086226;28;20041;-73
2022/06/09 00:36:47;;;;;;;34.60;16.85;;;;;;;;;;5091474;28;20040;-74
2022/06/09 00:39:13;;;;;;;28.48;14.93;;;;;;;;;;5083746;28;20051;-74
2022/06/09 00:41:40;;;;;;;30.00;15.40;;;;;;;;;;5092067;28;20116;-74
2022/06/09 00:44:23;;;;;;;33.28;16.02;;;;;;;;;;5092577;28;20510;-74
2022/06/09 00:46:52;;;;;;;29.48;15.45;;;;;;;;;;5073691;28;20079;-74
2022/06/09 00:49:22;;;;;;;34.22;16.35;;;;;;;;;;5081143;28;20415;-73
2022/06/09 00:51:49;;;;;;;31.45;15.82;;;;;;;;;;5080169;28;20041;-74
2022/06/09 00:54:15;;;;;;;31.50;15.63;;;;;;;;;;5080379;28;20063;-74
2022/06/09 00:56:45;;;;;;;38.78;16.77;;;;;;;;;;5079865;28;20045;-73
2022/06/09 00:59:16;;;;;;;30.63;14.18;;;;;;;;;;5088876;28;20048;-73
2022/06/09 01:01:43;;;;;;;39.33;15.90;;;;;;;;;;5091168;28;20047;-74
2022/06/09 01:04:10;;;;;;;35.85;15.75;;;;;;;;;;5074840;28;20037;-73
2022/06/09 01:06:42;;;;;;;35.88;15.45;;;;;;;;;;5083036;28;20089;-74
2022/06/09 01:09:10;;;;;;;40.40;15.63;;;;;;;;;;5087555;28;20048;-74
2022/06/09 01:11:36;;;;;;;40.03;16.02;;;;;;;;;;5092899;28;20075;-75
2022/06/09 01:14:03;;;;;;;31.77;14.52;;;;;;;;;;5083995;28;20033;-75
2022/06/09 01:16:34;;;;;;;33.15;15.98;;;;;;;;;;5075036;28;20093;-75
2022/06/09 01:19:00;;;;;;;34.17;16.05;;;;;;;;;;5075556;28;20063;-75
2022/06/09 01:21:40;;;;;;;38.28;17.20;;;;;;;;;;5075537;28;20037;-75
2022/06/09 01:24:09;;;;;;;38.90;17.23;;;;;;;;;;5093208;28;20104;-75
2022/06/09 01:26:35;;;;;;;35.55;15.55;;;;;;;;;;5077708;28;20032;-74
2022/06/09 01:29:01;;;;;;;33.17;16.45;;;;;;;;;;5087720;28;20048;-74
2022/06/09 01:31:36;;;;;;;33.65;16.30;;;;;;;;;;5090883;28;20096;-75
2022/06/09 01:34:17;;;;;;;36.38;16.60;;;;;;;;;;5085926;28;20165;-74
2022/06/09 01:36:54;;;;;;;37.42;17.15;;;;;;;;;;5090639;28;20040;-75
2022/06/09 01:39:31;;;;;;;31.52;15.63;;;;;;;;;;5091642;28;20045;-74
2022/06/09 01:41:57;;;;;;;34.90;15.73;;;;;;;;;;5082477;28;20048;-74
2022/06/09 01:44:23;;;;;;;34.72;15.55;;;;;;;;;;5074297;28;20060;-74
2022/06/09 01:46:49;;;;;;;35.13;16.35;;;;;;;;;;5078193;28;20123;-74
2022/06/09 01:49:21;;;;;;;35.63;15.52;;;;;;;;;;5081092;28;20090;-74
2022/06/09 01:51:49;;;;;;;30.98;15.32;;;;;;;;;;5084906;28;20044;-74
2022/06/09 01:54:24;;;;;;;35.42;15.52;;;;;;;;;;5086958;28;20067;-74
2022/06/09 01:57:08;;;;;;;30.55;14.82;;;;;;;;;;5093225;28;20021;-74
2022/06/09 01:59:37;;;;;;;31.13;14.95;;;;;;;;;;5083997;28;20041;-74
2022/06/09 02:02:21;;;;;;;29.02;13.57;;;;;;;;;;5083736;28;20048;-74
2022/06/09 02:04:52;;;;;;;25.58;12.50;;;;;;;;;;5086387;28;20036;-74
2022/06/09 02:07:19;;;;;;;30.88;12.38;;;;;;;;;;5087480;28;20048;-75
2022/06/09 02:09:45;;;;;;;29.02;13.15;;;;;;;;;;5075066;28;20052;-75
2022/06/09 02:12:17;;;;;;;29.85;14.27;;;;;;;;;;5074814;28;20115;-75
2022/06/09 02:14:43;;;;;;;;;;;;;;;;;;5093764;28;20052;-75
2022/06/09 02:17:09;;;;;;;28.73;12.60;;;;;;;;;;5091727;28;19943;-75
2022/06/09 02:19:36;;;;;;;32.08;12.85;;;;;;;;;;5069658;28;20070;-75
2022/06/09 02:22:04;;;;;;;27.13;13.18;;;;;;;;;;5091232;28;20041;-76
2022/06/09 02:24:32;;;;;;;33.63;14.73;;;;;;;;;;5078163;28;20037;-75
2022/06/09 02:26:58;;;;;;;30.88;13.65;;;;;;;;;;5092533;28;20044;-75
2022/06/09 02:29:24;;;;;;;27.48;13.18;;;;;;;;;;5082497;28;20041;-73
2022/06/09 02:31:50;;;;;;;28.50;12.75;;;;;;;;;;5088834;28;20056;-75
2022/06/09 02:34:16;;;;;;;36.00;13.65;;;;;;;;;;5079375;28;20068;-74
2022/06/09 02:36:42;;;;;;;30.27;13.40;;;;;;;;;;5077406;28;20040;-74
2022/06/09 02:39:08;;;;;;;30.75;13.10;;;;;;;;;;5073244;28;20048;-74
2022/06/09 02:41:35;;;;;;;35.70;13.88;;;;;;;;;;5070697;28;20040;-75
2022/06/09 02:44:01;;;;;;;32.15;14.10;;;;;;;;;;5088035;28;20063;-75
2022/06/09 02:46:27;;;;;;;32.55;14.75;;;;;;;;;;5084946;28;20045;-75
2022/06/09 02:48:53;;;;;;;28.88;15.20;;;;;;;;;;5069276;28;20083;-75
2022/06/09 02:51:23;;;;;;;35.55;16.50;;;;;;;;;;5067450;28;20040;-75
2022/06/09 02:53:49;;;;;;;37.27;16.17;;;;;;;;;;5067389;28;20041;-75
2022/06/09 02:56:16;;;;;;;34.10;16.23;;;;;;;;;;5072435;28;20037;-75
2022/06/09 02:58:42;;;;;;;44.25;17.38;;;;;;;;;;5076187;28;20073;-75
2022/06/09 03:01:08;;;;;;;35.33;15.32;;;;;;;;;;5086033;28;20048;-75
2022/06/09 03:03:34;;;;;;;31.40;16.25;;;;;;;;;;5089571;28;20071;-75
2022/06/09 03:06:00;;;;;;;35.80;15.57;;;;;;;;;;5082579;28;20115;-75
2022/06/09 03:08:26;;;;;;;32.22;15.80;;;;;;;;;;5084939;28;20044;-75
2022/06/09 03:10:52;;;;;;;38.35;16.27;;;;;;;;;;5089517;28;20036;-74
2022/06/09 03:13:18;;;;;;;34.28;15.32;;;;;;;;;;5075753;28;20045;-75
2022/06/09 03:15:47;;;;;;;34.35;16.08;;;;;;;;;;5066787;28;20049;-75
2022/06/09 03:18:13;;;;;;;29.85;15.48;;;;;;;;;;5072766;28;20096;-74
2022/06/09 03:20:39;;;;;;;30.98;14.93;;;;;;;;;;5087230;28;20040;-74
2022/06/09 03:23:05;;;;;;;34.28;14.63;;;;;;;;;;5088721;28;20074;-74
2022/06/09 03:25:31;;;;;;;30.58;14.15;;;;;;;;;;5082996;28;20033;-74
2022/06/09 03:27:57;;;;;;;31.90;13.50;;;;;;;;;;5070201;28;20070;-74
2022/06/09 03:30:24;;;;;;;29.52;13.75;;;;;;;;;;5080221;28;20051;-74
2022/06/09 03:32:50;;;;;;;28.02;12.65;;;;;;;;;;5083887;28;20096;-74
2022/06/09 03:35:16;;;;;;;27.60;12.55;;;;;;;;;;5070440;28;20106;-74
2022/06/09 03:37:42;;;;;;;29.90;13.00;;;;;;;;;;5080943;28;20066;-74
2022/06/09 03:40:11;;;;;;;26.98;12.27;;;;;;;;;;5077924;28;20041;-74
2022/06/09 03:42:37;;;;;;;27.38;11.95;;;;;;;;;;5074017;28;20048;-74
2022/06/09 03:45:03;;;;;;;24.55;12.05;;;;;;;;;;5083084;28;20044;-74
2022/06/09 03:47:29;;;;;;;27.67;12.55;;;;;;;;;;5082030;28;20044;-75
2022/06/09 03:49:55;;;;;;;28.80;12.60;;;;;;;;;;5082616;28;20453;-75
2022/06/09 03:52:21;;;;;;;27.00;12.40;;;;;;;;;;5085833;28;20131;-75
2022/06/09 03:54:47;;;;;;;28.45;11.52;;;;;;;;;;5076551;28;20056;-75
2022/06/09 03:57:13;;;;;;;26.50;11.93;;;;;;;;;;5073038;28;20106;-75
2022/06/09 03:59:39;;;;;;;28.15;11.30;;;;;;;;;;5082876;28;20499;-75
2022/06/09 04:02:05;;;;;;;26.35;11.75;;;;;;;;;;5083132;28;20120;-74
2022/06/09 04:04:31;;;;;;;25.98;11.70;;;;;;;;;;5105539;28;20128;-74
2022/06/09 04:06:58;;;;;;;25.25;11.05;;;;;;;;;;5070517;28;20037;-74
2022/06/09 04:09:24;;;;;;;24.15;11.73;;;;;;;;;;5072239;28;20040;-74
2022/06/09 04:11:50;;;;;;;27.75;11.70;;;;;;;;;;5070721;28;20048;-74
2022/06/09 04:14:16;;;;;;;29.27;11.95;;;;;;;;;;5087391;28;20067;-74
2022/06/09 04:16:45;;;;;;;28.05;12.10;;;;;;;;;;5109667;28;20063;-73
2022/06/09 04:19:13;;;;;;;23.85;10.93;;;;;;;;;;5089963;28;20055;-75
2022/06/09 04:21:39;;;;;;;27.15;11.80;;;;;;;;;;5069186;28;20086;-75
2022/06/09 04:24:06;;;;;;;24.05;12.13;;;;;;;;;;5069317;28;20037;-75
2022/06/09 04:26:36;;;;;;;26.67;11.93;;;;;;;;;;5077104;28;20044;-75
2022/06/09 04:29:04;;;;;;;22.90;11.82;;;;;;;;;;5087062;28;20052;-75
2022/06/09 04:31:30;;;;;;;25.75;11.75;;;;;;;;;;5073933;28;20752;-76
2022/06/09 04:33:56;;;;;;;26.88;13.48;;;;;;;;;;5061335;28;20041;-75
2022/06/09 04:36:22;;;;;;;24.95;12.90;;;;;;;;;;5070536;28;20080;-75
2022/06/09 04:38:48;;;;;;;29.33;13.23;;;;;;;;;;5084098;28;20044;-74
2022/06/09 04:41:15;;;;;;;26.70;12.73;;;;;;;;;;5065767;28;20104;-75
2022/06/09 04:43:42;;;;;;;25.42;13.10;;;;;;;;;;5078734;28;20064;-74
2022/06/09 04:46:09;;;;;;;27.70;12.25;;;;;;;;;;5085200;28;20423;-75
2022/06/09 04:48:36;;;;;;;29.75;12.73;;;;;;;;;;5083408;28;20040;-75
2022/06/09 04:51:04;;;;;;;27.08;11.95;;;;;;;;;;5084695;28;20051;-75
2022/06/09 04:53:30;;;;;;;32.50;12.70;;;;;;;;;;5086347;28;20036;-74
2022/06/09 04:55:56;;;;;;;38.55;12.38;;;;;;;;;;5073556;28;20078;-76
2022/06/09 04:58:23;;;;;;;26.38;12.35;;;;;;;;;;5068114;28;20394;-74
2022/06/09 05:00:49;;;;;;;27.27;11.32;;;;;;;;;;5085149;28;20132;-75
2022/06/09 05:03:15;;;;;;;23.60;12.93;;;;;;;;;;5085210;28;20048;-75
2022/06/09 05:05:43;;;;;;;23.85;11.70;;;;;;;;;;5071551;28;21067;-75
2022/06/09 05:08:11;;;;;;;24.90;11.93;;;;;;;;;;5068821;28;20052;-75
2022/06/09 05:10:38;;;;;;;26.40;11.13;;;;;;;;;;5086411;28;20045;-74
2022/06/09 05:13:05;;;;;;;29.17;13.20;;;;;;;;;;5084372;28;20049;-73
2022/06/09 05:15:33;;;;;;;26.27;12.10;;;;;;;;;;5086356;28;20408;-75
2022/06/09 05:17:58;;;;;;;22.85;11.18;;;;;;;;;;5083504;28;20044;-75
2022/06/09 05:20:26;;;;;;;24.15;11.73;;;;;;;;;;5080290;28;20121;-75
2022/06/09 05:22:52;;;;;;;21.58;11.15;;;;;;;;;;5065922;28;20049;-76
2022/06/09 05:25:18;;;;;;;25.80;11.60;;;;;;;;;;5066137;28;20487;-74
2022/06/09 05:27:44;;;;;;;24.42;11.10;;;;;;;;;;5079368;28;20037;-75
2022/06/09 05:30:13;;;;;;;22.08;10.88;;;;;;;;;;5072866;28;20069;-75
2022/06/09 05:32:39;;;;;;;25.10;11.57;;;;;;;;;;5069541;28;20128;-75
2022/06/09 05:35:06;;;;;;;19.02;10.30;;;;;;;;;;5073882;28;20051;-75
2022/06/09 05:45:47;;;;;;;23.52;14.75;;;;;;;;;;5087016;28;20052;-75
2022/06/09 05:48:13;;;;;;;22.67;15.30;;;;;;;;;;5086677;28;20086;-75
2022/06/09 05:50:39;;;;;;;20.92;15.45;;;;;;;;;;5087917;28;20044;-75
2022/06/09 05:53:05;;;;;;;21.55;14.80;;;;;;;;;;5087633;28;20161;-75
2022/06/09 05:55:31;;;;;;;23.73;14.10;;;;;;;;;;5076340;28;20048;-75
2022/06/09 05:57:58;;;;;;;22.80;14.55;;;;;;;;;;5071963;28;20060;-74
2022/06/09 06:00:24;;;;;;;20.38;14.25;;;;;;;;;;5080730;28;20064;-76
2022/06/09 06:02:50;;;;;;;20.60;13.93;;;;;;;;;;5087648;28;20303;-75
2022/06/09 06:08:01;;;;;;;22.42;14.23;;;;;;;;;;5085260;28;20076;-75
2022/06/09 06:10:27;;;;;;;18.88;14.23;;;;;;;;;;5067244;28;20052;-75
2022/06/09 06:12:53;;;;;;;22.08;14.07;;;;;;;;;;5084447;28;20036;-76
2022/06/09 06:15:19;;;;;;;19.80;14.10;;;;;;;;;;5071292;28;20112;-75
2022/06/09 06:17:45;;;;;;;21.15;14.68;;;;;;;;;;5073038;28;20060;-74
2022/06/09 06:20:11;;;;;;;20.92;14.15;;;;;;;;;;5079814;28;20044;-75
2022/06/09 06:22:37;;;;;;;21.33;14.80;;;;;;;;;;5087929;28;20052;-74
2022/06/09 06:25:06;;;;;;;21.80;15.05;;;;;;;;;;5075561;28;20059;-76
2022/06/09 06:27:32;;;;;;;22.48;14.48;;;;;;;;;;5101749;28;20048;-75
2022/06/09 06:29:58;;;;;;;19.63;15.52;;;;;;;;;;5109717;28;20044;-74
2022/06/09 06:32:24;;;;;;;19.17;15.45;;;;;;;;;;5093046;28;20044;-74
2022/06/09 06:34:50;;;;;;;19.90;15.27;;;;;;;;;;5088359;28;20075;-74
2022/06/09 06:37:16;;;;;;;20.35;15.68;;;;;;;;;;5085002;28;20406;-74
2022/06/09 06:39:42;;;;;;;20.80;16.33;;;;;;;;;;5086577;28;20123;-75
2022/06/09 06:42:08;;;;;;;20.50;16.58;;;;;;;;;;5080159;28;20044;-74
2022/06/09 06:44:34;;;;;;;21.65;17.23;;;;;;;;;;5090070;28;20083;-75
2022/06/09 06:47:00;;;;;;;19.15;16.77;;;;;;;;;;5085189;28;20041;-74
2022/06/09 06:49:26;;;;;;;21.30;16.40;;;;;;;;;;5084435;28;20052;-75
2022/06/09 06:51:52;;;;;;;20.58;15.98;;;;;;;;;;5069528;28;20041;-75
2022/06/09 06:54:18;;;;;;;21.25;15.70;;;;;;;;;;5084343;28;20041;-75
2022/06/09 06:56:44;;;;;;;20.73;15.48;;;;;;;;;;5086227;28;20044;-74
2022/06/09 06:59:10;;;;;;;17.33;15.32;;;;;;;;;;5085347;28;20100;-75
2022/06/09 07:01:36;;;;;;;21.20;15.50;;;;;;;;;;5086017;28;20044;-75
2022/06/09 07:04:03;;;;;;;20.05;15.45;;;;;;;;;;5072526;28;20045;-75
2022/06/09 07:06:29;;;;;;;16.92;15.13;;;;;;;;;;5068073;28;20052;-75
2022/06/09 07:08:56;;;;;;;20.23;15.82;;;;;;;;;;5073637;28;20178;-75
2022/06/09 07:11:22;;;;;;;19.98;15.88;;;;;;;;;;5065507;28;20049;-75
2022/06/09 07:13:49;;;;;;;17.75;14.48;;;;;;;;;;5072805;28;20049;-75
2022/06/09 07:16:16;;;;;;;18.80;15.05;;;;;;;;;;5073489;28;20051;-75
2022/06/09 07:18:42;;;;;;;20.35;16.08;;;;;;;;;;5083147;28;20041;-75
2022/06/09 07:21:08;;;;;;;18.52;14.95;;;;;;;;;;5067675;28;20046;-74
2022/06/09 07:23:34;;;;;;;18.77;15.90;;;;;;;;;;5053151;28;20514;-76
2022/06/09 07:26:01;;;;;;;17.65;13.60;;;;;;;;;;5052925;28;20056;-75
2022/06/09 07:28:27;;;;;;;18.08;13.45;;;;;;;;;;5064351;28;20047;-75
2022/06/09 07:30:56;;;;;;;16.88;13.68;;;;;;;;;;5072429;28;20041;-75
2022/06/09 07:33:23;;;;;;;18.00;13.32;;;;;;;;;;5067031;28;20048;-74
2022/06/09 07:35:51;;;;;;;15.85;12.05;;;;;;;;;;5066819;28;20098;-74
2022/06/09 07:38:18;;;;;;;14.77;11.43;;;;;;;;;;5055473;28;20049;-75
2022/06/09 07:40:44;;;;;;;13.80;10.70;;;;;;;;;;5052834;28;20101;-76
2022/06/09 07:43:10;;;;;;;15.45;10.50;;;;;;;;;;5052713;28;20163;-74
2022/06/09 07:45:36;;;;;;;11.38;10.07;;;;;;;;;;5056450;28;20060;-76
2022/06/09 07:48:04;;;;;;;12.80;9.93;;;;;;;;;;5052674;28;20048;-75
2022/06/09 07:50:30;;;;;;;14.18;10.38;;;;;;;;;;5056241;28;20095;-74
2022/06/09 07:52:57;;;;;;;12.70;9.95;;;;;;;;;;5071922;28;20133;-75
2022/06/09 07:55:24;;;;;;;11.20;9.13;;;;;;;;;;5072507;28;20402;-75
2022/06/09 07:57:50;;;;;;;11.07;8.43;;;;;;;;;;5058009;28;20059;-76
2022/06/09 08:00:16;;;;;;;11.10;8.40;;;;;;;;;;5053380;28;20045;-74
2022/06/09 08:02:43;;;;;;;10.55;7.90;;;;;;;;;;5076172;28;20498;-74
2022/06/09 08:05:09;;;;;;;10.90;7.85;;;;;;;;;;5060896;28;20137;-74
2022/06/09 08:07:36;;;;;;;10.43;6.57;;;;;;;;;;5073683;28;20120;-75
2022/06/09 08:10:02;;;;;;;9.73;6.63;;;;;;;;;;5063238;28;20051;-75
2022/06/09 08:12:28;;;;;;;9.43;6.70;;;;;;;;;;5072618;28;20045;-74
2022/06/09 08:14:54;;;;;;;11.93;8.10;;;;;;;;;;5070618;28;20041;-75
2022/06/09 08:17:20;;;;;;;9.38;6.60;;;;;;;;;;5072076;28;20063;-75
2022/06/09 08:19:47;;;;;;;9.73;5.35;;;;;;;;;;5072541;28;20048;-74
2022/06/09 08:22:14;;;;;;;10.98;5.13;;;;;;;;;;5057083;28;20125;-75
2022/06/09 08:24:40;;;;;;;8.95;5.10;;;;;;;;;;5052756;28;20044;-75
2022/06/09 08:27:06;;;;;;;10.07;5.28;;;;;;;;;;5064553;28;20051;-75
2022/06/09 08:29:32;;;;;;;8.77;4.78;;;;;;;;;;5065564;28;20148;-76
2022/06/09 08:31:58;;;;;;;9.57;4.80;;;;;;;;;;5072872;28;20508;-75
2022/06/09 08:34:25;;;;;;;9.52;4.43;;;;;;;;;;5071554;28;20170;-73
2022/06/09 08:36:51;;;;;;;8.18;4.00;;;;;;;;;;5072972;28;20090;-75
2022/06/09 08:39:17;;;;;;;9.63;4.10;;;;;;;;;;5072777;28;20069;-75
2022/06/09 08:41:46;;;;;;;7.93;3.58;;;;;;;;;;5072145;28;20040;-73
2022/06/09 08:44:17;;;;;;;9.82;3.75;;;;;;;;;;5072905;28;20095;-74
2022/06/09 08:46:43;;;;;;;6.78;2.80;;;;;;;;;;5072966;28;20494;-73
2022/06/09 08:49:23;;;;;;;6.63;3.25;;;;;;;;;;5076667;28;20051;-73
2022/06/09 08:51:49;;;;;;;8.15;3.20;;;;;;;;;;5076414;28;20080;-75
2022/06/09 08:54:18;;;;;;;6.50;2.45;;;;;;;;;;5067264;28;20037;-74
2022/06/09 08:56:45;;;;;;;6.32;2.20;;;;;;;;;;5056462;28;20053;-74
2022/06/09 08:59:21;;;;;;;6.07;2.20;;;;;;;;;;5056301;28;20087;-74
2022/06/09 09:01:49;;;;;;;7.03;2.00;;;;;;;;;;5064910;28;20448;-75
2022/06/09 09:04:18;;;;;;;5.53;2.10;;;;;;;;;;5064642;28;20052;-75
2022/06/09 09:06:49;;;;;;;5.53;2.10;;;;;;;;;;5078581;28;20037;-74
2022/06/09 09:09:16;;;;;;;7.50;2.10;;;;;;;;;;5068369;28;20511;-74
2022/06/09 09:12:01;;;;;;;6.65;1.60;;;;;;;;;;5068564;28;20059;-74
2022/06/09 09:14:34;;;;;;;7.43;1.70;;;;;;;;;;5067189;28;20045;-74
2022/06/09 09:17:20;;;;;;;5.53;1.55;;;;;;;;;;5057762;28;20048;-75
2022/06/09 09:19:52;;;;;;;6.57;1.77;;;;;;;;;;5054602;28;20057;-74
2022/06/09 09:22:24;;;;;;;8.43;1.63;;;;;;;;;;5070148;28;20092;-73
2022/06/09 09:24:56;;;;;;;9.85;2.00;;;;;;;;;;5060412;28;20072;-73
2022/06/09 09:27:35;;;;;;;5.25;1.42;;;;;;;;;;5076506;28;20036;-74
2022/06/09 09:30:04;;;;;;;5.82;1.45;;;;;;;;;;5076394;28;20050;-74
2022/06/09 09:32:35;;;;;;;4.95;1.40;;;;;;;;;;5075861;28;20036;-75
2022/06/09 09:35:01;;;;;;;4.40;1.20;;;;;;;;;;5075606;28;20119;-74
2022/06/09 09:37:38;;;;;;;8.45;1.40;;;;;;;;;;5075915;28;20045;-74
2022/06/09 09:40:07;;;;;;;6.05;1.30;;;;;;;;;;5075891;28;20049;-73
2022/06/09 09:42:34;;;;;;;8.02;1.35;;;;;;;;;;5074974;28;20533;-73
2022/06/09 09:45:06;;;;;;;7.10;1.48;;;;;;;;;;5073864;28;20052;-74
2022/06/09 09:47:41;;;;;;;4.68;1.20;;;;;;;;;;5075834;28;20414;-74
2022/06/09 09:50:15;;;;;;;7.78;1.60;;;;;;;;;;5075868;28;20109;-74
2022/06/09 09:52:44;;;;;;;3.78;1.20;;;;;;;;;;5074453;28;20127;-74
2022/06/09 09:55:25;;;;;;;5.70;1.30;;;;;;;;;;5071380;28;20102;-76
2022/06/09 09:58:07;;;;;;;5.18;1.20;;;;;;;;;;5075618;28;20044;-74
2022/06/09 10:00:34;;;;;;;5.10;1.20;;;;;;;;;;5071395;28;20045;-73
2022/06/09 10:08:46;;;;;;;6.32;1.00;;;;;;;;;;5028078;28;20045;-73
2022/06/09 10:14:24;;;;;;;7.25;1.20;;;;;;;;;;5013543;28;20050;-73
2022/06/09 10:16:50;;;;;;;;;;;;;;;;;;5026921;28;20049;-73
2022/06/09 10:19:19;;;;;;;6.47;1.20;;;;;;;;;;5027236;28;20402;-73
2022/06/09 10:21:52;;;;;;;4.45;1.20;;;;;;;;;;5027567;28;20140;-73
2022/06/09 10:24:21;;;;;;;4.93;1.20;;;;;;;;;;5033195;28;20459;-73
2022/06/09 10:26:51;;;;;;;6.75;1.17;;;;;;;;;;5033016;28;20486;-74
2022/06/09 10:29:27;;;;;;;6.45;1.20;;;;;;;;;;5032402;28;20045;-73
2022/06/09 10:31:53;;;;;;;5.78;1.23;;;;;;;;;;5032410;28;20770;-74
2022/06/09 10:34:25;;;;;;;7.35;1.55;;;;;;;;;;5021110;28;20065;-74
2022/06/09 10:37:09;;;;;;;6.47;1.25;;;;;;;;;;5022075;28;20044;-73
2022/06/09 10:39:38;;;;;;;6.35;0.98;;;;;;;;;;5016802;28;20180;-73
2022/06/09 10:42:04;;;;;;;7.18;1.25;;;;;;;;;;5027453;28;20049;-76
2022/06/09 10:44:30;;;;;;;7.13;1.10;;;;;;;;;;5016165;28;20432;-74
2022/06/09 10:55:24;;;;;;;7.13;1.65;;;;;;;;;;5067338;28;20487;-74
2022/06/09 10:58:09;;;;;;;6.82;1.15;;;;;;;;;;5086138;28;20132;-73
2022/06/09 11:00:40;;;;;;;5.05;1.15;;;;;;;;;;5053627;28;20052;-72
2022/06/09 11:03:15;;;;;;;7.72;1.40;;;;;;;;;;5054058;28;20407;-75
2022/06/09 11:05:41;;;;;;;5.57;1.10;;;;;;;;;;5066241;28;20658;-74
2022/06/09 11:08:18;;;;;;;5.43;1.00;;;;;;;;;;5072612;28;20077;-73
2022/06/09 11:10:44;;;;;;;7.15;1.00;;;;;;;;;;5072885;28;20048;-74
2022/06/09 11:13:25;;;;;;;5.38;1.00;;;;;;;;;;5065535;28;20499;-74
2022/06/09 11:16:03;;;;;;;4.72;1.00;;;;;;;;;;5053483;28;20557;-73
2022/06/09 11:18:47;;;;;;;4.57;1.00;;;;;;;;;;5085700;28;20376;-73
2022/06/09 11:21:15;;;;;;;5.00;0.98;;;;;;;;;;5059623;28;20044;-74
2022/06/09 11:23:44;;;;;;;7.18;1.67;;;;;;;;;;5072981;28;20407;-74
2022/06/09 11:26:29;;;;;;;4.78;1.08;;;;;;;;;;5073463;28;20045;-74
2022/06/09 11:28:55;;;;;;;6.40;1.08;;;;;;;;;;5073328;28;20045;-73
2022/06/09 11:31:29;;;;;;;8.57;1.20;;;;;;;;;;5071039;28;20071;-73
2022/06/09 11:34:01;;;;;;;5.32;1.08;;;;;;;;;;5068397;28;20448;-74
2022/06/09 11:36:40;;;;;;;5.97;1.25;;;;;;;;;;5073149;28;20041;-74
2022/06/09 11:39:25;;;;;;;4.93;0.85;;;;;;;;;;5072525;28;20040;-74
2022/06/09 11:42:06;;;;;;;7.07;1.27;;;;;;;;;;5070096;28;20097;-75
2022/06/09 11:44:35;;;;;;;6.10;1.27;;;;;;;;;;5070066;28;20060;-73
2022/06/09 11:47:02;;;;;;;7.57;1.38;;;;;;;;;;5059724;28;20076;-73
2022/06/09 11:49:36;;;;;;;6.72;0.80;;;;;;;;;;5073046;28;20053;-73
2022/06/09 11:52:05;;;;;;;6.55;0.82;;;;;;;;;;5052818;28;20041;-74
2022/06/09 11:54:57;;;;;;;5.82;1.00;;;;;;;;;;5061460;28;20125;-74
2022/06/09 11:57:28;;;;;;;5.15;1.08;;;;;;;;;;5072627;28;20052;-73
2022/06/09 12:00:04;;;;;;;5.05;0.98;;;;;;;;;;5064299;28;20044;-74
2022/06/09 12:02:36;;;;;;;4.93;1.05;;;;;;;;;;5072018;28;20044;-73
2022/06/09 12:05:23;;;;;;;5.28;0.80;;;;;;;;;;5068122;28;20040;-73
2022/06/09 12:08:04;;;;;;;5.03;0.90;;;;;;;;;;5069977;28;20076;-72
2022/06/09 12:10:49;;;;;;;4.85;1.00;;;;;;;;;;5056458;28;20402;-73
2022/06/09 12:13:18;;;;;;;4.95;0.80;;;;;;;;;;5069893;28;20071;-73
2022/06/09 12:15:47;;;;;;;7.15;1.10;;;;;;;;;;5071391;28;20044;-75
2022/06/09 12:18:15;;;;;;;7.93;1.33;;;;;;;;;;5070145;28;20048;-74
2022/06/09 12:21:02;;;;;;;8.02;1.25;;;;;;;;;;5071186;28;20057;-74
2022/06/09 12:23:34;;;;;;;6.82;1.00;;;;;;;;;;5076298;28;20044;-74
2022/06/09 12:26:09;;;;;;;4.97;0.80;;;;;;;;;;5076465;28;20064;-74
2022/06/09 12:28:55;;;;;;;5.13;0.90;;;;;;;;;;5076439;28;20048;-74
2022/06/09 12:31:22;;;;;;;6.60;1.10;;;;;;;;;;5076342;28;20048;-73
2022/06/09 12:33:54;;;;;;;6.10;0.95;;;;;;;;;;5075736;28;20043;-76
2022/06/09 12:36:32;;;;;;;8.63;1.52;;;;;;;;;;5059668;28;20499;-74
2022/06/09 12:39:00;;;;;;;5.53;1.10;;;;;;;;;;5074847;28;20044;-74
2022/06/09 12:41:31;;;;;;;5.90;0.88;;;;;;;;;;5075965;28;20550;-75
2022/06/09 12:44:01;;;;;;;5.80;0.90;;;;;;;;;;5064983;28;20158;-74
2022/06/09 12:46:28;;;;;;;6.65;1.10;;;;;;;;;;5060749;28;20086;-74
2022/06/09 12:48:55;;;;;;;5.35;1.08;;;;;;;;;;5080435;28;20052;-75
2022/06/09 12:51:30;;;;;;;4.85;1.13;;;;;;;;;;5075458;28;20044;-74
2022/06/09 12:53:59;;;;;;;7.15;1.05;;;;;;;;;;5075852;28;20037;-74
2022/06/09 12:56:28;;;;;;;7.07;1.48;;;;;;;;;;5075770;28;20041;-74
2022/06/09 12:58:54;;;;;;;6.97;1.30;;;;;;;;;;5070066;28;20040;-75
2022/06/09 13:01:26;;;;;;;6.53;1.20;;;;;;;;;;5072492;28;20406;-74
2022/06/09 13:03:56;;;;;;;6.50;1.00;;;;;;;;;;5060411;28;20045;-75
2022/06/09 13:06:24;;;;;;;5.75;1.10;;;;;;;;;;5064464;28;20550;-75
2022/06/09 13:08:53;;;;;;;7.57;1.27;;;;;;;;;;5075762;28;20045;-75
2022/06/09 13:12:50;;;;;;;4.80;1.05;;;;;;;;;;5059853;28;20067;-73
2022/06/09 13:14:07;;;;;;;6.30;1.35;;;;;;;;;;5055225;28;20523;-75
2022/06/09 13:16:38;;;;;;;5.65;1.40;;;;;;;;;;5072784;28;20560;-74
2022/06/09 13:19:04;;;;;;;;;;;;;;;;;;5075908;28;20119;-74
2022/06/09 13:21:36;;;;;;;6.43;0.93;;;;;;;;;;5075464;28;19924;-73
2022/06/09 13:24:03;;;;;;;6.72;1.10;;;;;;;;;;5074643;28;20542;-74
2022/06/09 13:26:31;;;;;;;5.93;0.98;;;;;;;;;;5076746;28;20126;-75
2022/06/09 13:28:59;;;;;;;5.18;0.93;;;;;;;;;;5073563;28;20044;-75
2022/06/09 13:31:27;;;;;;;4.85;0.80;;;;;;;;;;5074532;28;20040;-75
2022/06/09 13:33:55;;;;;;;5.65;1.02;;;;;;;;;;5056261;28;20377;-75
2022/06/09 13:36:27;;;;;;;8.35;1.00;;;;;;;;;;5055248;28;20503;-76
2022/06/09 13:38:53;;;;;;;9.80;1.30;;;;;;;;;;5055376;28;20069;-75
2022/06/09 13:41:25;;;;;;;5.25;1.50;;;;;;;;;;5065980;28;20033;-74
2022/06/09 13:43:53;;;;;;;5.78;1.15;;;;;;;;;;5105615;28;20076;-73
2022/06/09 13:46:21;;;;;;;5.00;1.00;;;;;;;;;;5070223;28;20044;-75
2022/06/09 13:48:50;;;;;;;4.70;1.10;;;;;;;;;;5090544;28;20407;-74
2022/06/09 13:51:52;;;;;;;6.22;1.05;;;;;;;;;;5098967;28;20041;-74
2022/06/09 13:54:38;;;;;;;6.03;1.10;;;;;;;;;;5052335;28;20491;-74
2022/06/09 13:57:18;;;;;;;5.13;1.00;;;;;;;;;;5059634;28;20060;-74
2022/06/09 13:59:44;;;;;;;9.13;0.90;;;;;;;;;;5072627;28;20123;-75
2022/06/09 14:02:15;;;;;;;6.45;0.93;;;;;;;;;;5071701;28;20098;-74
2022/06/09 14:04:40;;;;;;;;;;;;;;;;;;5061361;28;20379;-75
2022/06/09 14:07:07;;;;;;;4.82;0.95;;;;;;;;;;5072400;28;19921;-75
2022/06/09 14:09:33;;;;;;;8.02;1.30;;;;;;;;;;5072648;28;20044;-74
2022/06/09 14:12:00;;;;;;;4.78;0.88;;;;;;;;;;5071602;28;20189;-74
2022/06/09 14:14:26;;;;;;;6.20;1.40;;;;;;;;;;5054135;28;20119;-74
2022/06/09 14:16:52;;;;;;;7.85;1.20;;;;;;;;;;5042351;28;20129;-76
2022/06/09 14:19:18;;;;;;;6.07;1.20;;;;;;;;;;5033563;28;20049;-75
2022/06/09 14:21:45;;;;;;;5.45;1.20;;;;;;;;;;5069520;28;20053;-74
2022/06/09 14:24:13;;;;;;;6.35;1.30;;;;;;;;;;5070023;28;20128;-75
2022/06/09 14:26:39;;;;;;;7.85;1.30;;;;;;;;;;5061848;28;20040;-75
2022/06/09 14:29:06;;;;;;;7.57;1.25;;;;;;;;;;5066897;28;20208;-75
2022/06/09 14:31:32;;;;;;;6.88;1.05;;;;;;;;;;5073424;28;20044;-74
2022/06/09 14:34:00;;;;;;;6.53;0.93;;;;;;;;;;5073711;28;20109;-75
2022/06/09 14:36:26;;;;;;;8.05;1.30;;;;;;;;;;5054224;28;20048;-75
2022/06/09 14:38:53;;;;;;;7.45;1.50;;;;;;;;;;5053200;28;20041;-74
2022/06/09 14:41:19;;;;;;;6.47;1.25;;;;;;;;;;5061971;28;20562;-74
2022/06/09 14:43:46;;;;;;;10.77;1.63;;;;;;;;;;5071946;28;20056;-75
2022/06/09 14:46:18;;;;;;;6.25;1.27;;;;;;;;;;5072147;28;20047;-74
2022/06/09 14:48:44;;;;;;;6.65;1.20;;;;;;;;;;5055265;28;20121;-74
2022/06/09 14:51:12;;;;;;;7.28;1.17;;;;;;;;;;5061549;28;20052;-75
2022/06/09 14:53:39;;;;;;;8.90;1.42;;;;;;;;;;5063307;28;20076;-74
2022/06/09 14:56:05;;;;;;;9.30;1.60;;;;;;;;;;5053946;28;20501;-74
2022/06/09 14:58:31;;;;;;;5.93;1.02;;;;;;;;;;5070601;28;20058;-74
2022/06/09 15:00:58;;;;;;;6.78;1.27;;;;;;;;;;5071686;28;20128;-77
2022/06/09 15:03:25;;;;;;;7.82;1.10;;;;;;;;;;5063845;28;20132;-75
2022/06/09 15:05:51;;;;;;;8.70;1.10;;;;;;;;;;5066833;28;20127;-74
2022/06/09 15:08:18;;;;;;;7.32;1.25;;;;;;;;;;5064972;28;20041;-76